Time;durP1;ratioP1;P1;durP2;ratioP2;P2;SDS_P1;SDS_P2;PMS_P1;PMS_P2;Temp;Humidity;BMP_temperature;BMP_pressure;BME280_temperature;BME280_humidity;BME280_pressure;Samples;Min_cycle;Max_cycle;Signal;HPM_P1;HPM_P2
2022/03/18 00:01:55;;;;;;;11.30;6.60;;;13.80;96.70;;;;;;4985094;28;20050;-78
2022/03/18 00:04:23;;;;;;;9.27;6.68;;;13.70;96.70;;;;;;4966168;28;20045;-78
2022/03/18 00:06:52;;;;;;;9.10;6.88;;;13.70;96.70;;;;;;4982183;28;20081;-78
2022/03/18 00:09:21;;;;;;;11.10;6.72;;;13.70;96.70;;;;;;4999099;28;20065;-78
2022/03/18 00:11:51;;;;;;;8.13;6.63;;;13.70;96.70;;;;;;4966341;28;20544;-79
2022/03/18 00:14:20;;;;;;;9.60;6.43;;;13.60;96.70;;;;;;4988299;28;20211;-78
2022/03/18 00:16:48;;;;;;;9.75;6.30;;;13.70;96.70;;;;;;4983368;28;20093;-78
2022/03/18 00:19:17;;;;;;;10.98;7.22;;;13.60;96.70;;;;;;5000998;28;20050;-77
2022/03/18 00:21:52;;;;;;;7.88;6.22;;;13.60;96.70;;;;;;4983503;28;20101;-78
2022/03/18 00:24:20;;;;;;;9.98;6.63;;;13.60;96.70;;;;;;5019864;28;20060;-78
2022/03/18 00:26:51;;;;;;;8.15;6.60;;;13.60;96.70;;;;;;5003642;28;20070;-84
2022/03/18 00:29:19;;;;;;;9.00;5.72;;;13.60;96.70;;;;;;5005542;28;20053;-85
2022/03/18 00:31:48;;;;;;;8.18;6.68;;;13.60;96.70;;;;;;4976172;28;20053;-84
2022/03/18 00:34:16;;;;;;;10.20;7.07;;;13.60;96.70;;;;;;5008746;28;20047;-83
2022/03/18 00:36:45;;;;;;;8.15;6.38;;;13.60;96.70;;;;;;4983524;28;20508;-84
2022/03/18 00:39:18;;;;;;;8.52;7.53;;;13.60;96.70;;;;;;5003864;28;20087;-84
2022/03/18 00:41:47;;;;;;;9.02;6.75;;;13.60;96.70;;;;;;4971272;28;20101;-85
2022/03/18 00:44:25;;;;;;;7.53;6.75;;;13.60;96.70;;;;;;4973290;28;20046;-78
2022/03/18 00:46:53;;;;;;;8.55;6.28;;;13.50;96.70;;;;;;4966333;28;20046;-79
2022/03/18 00:52:14;;;;;;;8.45;6.50;;;13.50;96.70;;;;;;4987954;28;20081;-78
2022/03/18 00:54:43;;;;;;;7.53;6.53;;;13.50;96.70;;;;;;4986529;28;20050;-80
2022/03/18 00:57:13;;;;;;;8.55;6.32;;;13.50;96.70;;;;;;5001464;28;20045;-78
2022/03/18 00:59:43;;;;;;;10.20;6.93;;;13.50;96.70;;;;;;5002136;28;20516;-78
2022/03/18 01:02:11;;;;;;;8.07;6.90;;;13.40;96.70;;;;;;4986187;28;20461;-78
2022/03/18 01:04:40;;;;;;;9.18;6.78;;;13.40;96.70;;;;;;4988603;28;20054;-77
2022/03/18 01:07:08;;;;;;;7.63;6.82;;;13.40;96.70;;;;;;4983399;28;20085;-77
2022/03/18 01:09:37;;;;;;;8.82;6.80;;;13.40;96.70;;;;;;4993156;28;20516;-78
2022/03/18 01:12:06;;;;;;;7.13;6.00;;;13.40;96.70;;;;;;4985326;28;20080;-78
2022/03/18 01:14:35;;;;;;;7.10;6.07;;;13.40;96.70;;;;;;4986666;28;20512;-78
2022/03/18 01:17:05;;;;;;;7.95;6.68;;;13.40;96.70;;;;;;4968947;28;20042;-78
2022/03/18 01:19:34;;;;;;;11.52;7.03;;;13.40;96.70;;;;;;4972367;28;20046;-78
2022/03/18 01:22:02;;;;;;;8.75;6.85;;;13.30;96.70;;;;;;4988263;28;20046;-78
2022/03/18 01:24:31;;;;;;;8.20;7.13;;;13.30;96.70;;;;;;4986229;28;20050;-78
2022/03/18 01:26:59;;;;;;;9.48;7.30;;;13.30;96.70;;;;;;4970336;28;20061;-78
2022/03/18 01:29:28;;;;;;;8.05;6.85;;;13.30;96.70;;;;;;4985191;28;20177;-78
2022/03/18 01:31:56;;;;;;;7.70;6.43;;;13.30;96.70;;;;;;4988659;28;20093;-78
2022/03/18 01:34:26;;;;;;;7.55;6.70;;;13.30;96.70;;;;;;4985437;28;20046;-78
2022/03/18 01:36:55;;;;;;;8.38;6.45;;;13.20;96.70;;;;;;4986470;28;20054;-78
2022/03/18 01:39:24;;;;;;;8.88;6.72;;;13.20;96.70;;;;;;4983842;28;20129;-78
2022/03/18 01:41:52;;;;;;;8.20;7.00;;;13.20;96.70;;;;;;4986009;28;20489;-78
2022/03/18 01:44:21;;;;;;;12.25;7.53;;;13.20;96.70;;;;;;4970346;28;20061;-77
2022/03/18 01:46:50;;;;;;;7.57;6.43;;;13.20;96.70;;;;;;4976323;28;20500;-78
2022/03/18 01:49:18;;;;;;;7.82;7.00;;;13.20;96.70;;;;;;4967559;28;20038;-77
2022/03/18 01:51:48;;;;;;;9.68;7.22;;;13.10;96.70;;;;;;4984790;28;20532;-77
2022/03/18 01:57:05;;;;;;;10.43;7.10;;;13.20;96.70;;;;;;4989147;28;20078;-84
2022/03/18 01:59:33;;;;;;;8.43;7.07;;;13.20;96.70;;;;;;5025810;28;20555;-84
2022/03/18 02:02:02;;;;;;;9.40;7.05;;;13.20;96.70;;;;;;5005173;28;20053;-84
2022/03/18 02:04:32;;;;;;;11.48;7.20;;;13.20;96.70;;;;;;4973810;28;20077;-83
2022/03/18 02:07:03;;;;;;;10.15;7.70;;;13.10;96.70;;;;;;4979683;28;20042;-84
2022/03/18 02:09:32;;;;;;;9.90;7.13;;;13.10;96.70;;;;;;5013680;28;20133;-84
2022/03/18 02:12:02;;;;;;;9.65;7.03;;;13.10;96.70;;;;;;4988186;28;20038;-84
2022/03/18 02:14:33;;;;;;;9.07;7.22;;;13.10;96.70;;;;;;4996550;28;20046;-84
2022/03/18 02:17:03;;;;;;;10.45;7.90;;;13.00;96.70;;;;;;5005130;28;20480;-85
2022/03/18 02:19:32;;;;;;;8.60;7.55;;;13.10;96.70;;;;;;5005689;28;20192;-83
2022/03/18 02:22:08;;;;;;;9.00;7.47;;;13.10;96.70;;;;;;4991880;28;20034;-84
2022/03/18 02:24:39;;;;;;;10.75;7.60;;;13.10;96.70;;;;;;4988758;28;20065;-84
2022/03/18 02:27:08;;;;;;;9.27;7.53;;;13.10;96.70;;;;;;4972645;28;20109;-83
2022/03/18 02:29:36;;;;;;;10.80;7.78;;;13.10;96.70;;;;;;4980379;28;20097;-83
2022/03/18 02:32:07;;;;;;;9.13;7.78;;;13.00;96.70;;;;;;5004090;28;20492;-84
2022/03/18 02:34:42;;;;;;;10.88;8.25;;;13.00;96.70;;;;;;4995545;28;20081;-83
2022/03/18 02:37:11;;;;;;;8.38;6.90;;;13.00;96.70;;;;;;4985752;28;20153;-84
2022/03/18 02:39:41;;;;;;;8.38;7.55;;;13.00;96.70;;;;;;4972224;28;20237;-83
2022/03/18 02:42:09;;;;;;;9.60;8.27;;;13.00;96.70;;;;;;4987814;28;20042;-83
2022/03/18 02:44:37;;;;;;;8.35;7.43;;;13.00;96.70;;;;;;5004734;28;20047;-83
2022/03/18 02:47:06;;;;;;;10.75;7.70;;;13.00;96.70;;;;;;4971857;28;20129;-84
2022/03/18 02:49:34;;;;;;;10.25;7.93;;;13.00;96.70;;;;;;4986834;28;20050;-83
2022/03/18 02:52:02;;;;;;;9.05;7.55;;;13.00;96.70;;;;;;4988864;28;20050;-84
2022/03/18 02:54:32;;;;;;;9.30;8.18;;;13.00;96.70;;;;;;4976050;28;20050;-77
2022/03/18 02:57:02;;;;;;;9.95;7.90;;;13.00;96.70;;;;;;4985006;28;20042;-77
2022/03/18 02:59:30;;;;;;;8.48;7.03;;;13.00;96.70;;;;;;5000078;28;20509;-77
2022/03/18 03:01:59;;;;;;;10.90;7.85;;;13.00;96.70;;;;;;4984318;28;20044;-77
2022/03/18 03:04:27;;;;;;;11.63;8.77;;;13.00;96.70;;;;;;4966741;28;20046;-79
2022/03/18 03:09:42;;;;;;;9.07;8.05;;;13.00;96.70;;;;;;5000008;28;20051;-77
2022/03/18 03:12:11;;;;;;;12.80;8.38;;;13.00;96.70;;;;;;4984999;28;20597;-77
2022/03/18 03:14:39;;;;;;;10.52;8.50;;;13.00;96.70;;;;;;4986769;28;20411;-78
2022/03/18 03:17:07;;;;;;;11.57;8.80;;;13.00;96.70;;;;;;4970951;28;20069;-77
2022/03/18 03:19:35;;;;;;;11.38;8.18;;;13.00;96.70;;;;;;4968955;28;20081;-77
2022/03/18 03:22:03;;;;;;;10.63;8.20;;;13.00;96.70;;;;;;5000652;28;20045;-77
2022/03/18 03:24:32;;;;;;;8.85;7.75;;;13.00;96.70;;;;;;5006579;28;20121;-78
2022/03/18 03:27:00;;;;;;;11.82;8.20;;;13.00;96.70;;;;;;5001419;28;20307;-77
2022/03/18 03:29:30;;;;;;;11.23;8.40;;;13.00;96.70;;;;;;4986586;28;20052;-85
2022/03/18 03:31:58;;;;;;;10.00;8.52;;;13.00;96.70;;;;;;4999442;28;20081;-83
2022/03/18 03:34:27;;;;;;;11.82;7.93;;;13.00;96.70;;;;;;4976425;28;20078;-83
2022/03/18 03:36:55;;;;;;;10.63;8.05;;;13.00;96.70;;;;;;4996064;28;20106;-84
2022/03/18 03:39:23;;;;;;;9.95;7.95;;;13.00;96.70;;;;;;4972812;28;20108;-84
2022/03/18 03:41:51;;;;;;;12.27;9.18;;;13.00;96.70;;;;;;4971996;28;20062;-83
2022/03/18 03:44:19;;;;;;;9.73;8.70;;;13.00;96.70;;;;;;4980470;28;20038;-84
2022/03/18 03:46:48;;;;;;;8.20;7.40;;;13.00;96.70;;;;;;4982374;28;20050;-83
2022/03/18 03:49:17;;;;;;;10.50;8.07;;;12.90;96.70;;;;;;4976399;28;20557;-83
2022/03/18 03:51:44;;;;;;;11.38;8.00;;;12.90;96.70;;;;;;4971676;28;20035;-83
2022/03/18 03:54:13;;;;;;;9.90;8.73;;;13.00;96.70;;;;;;5005073;28;20043;-84
2022/03/18 03:56:40;;;;;;;10.27;8.43;;;13.00;96.70;;;;;;4978328;28;20583;-84
2022/03/18 03:59:08;;;;;;;11.15;8.23;;;13.00;96.70;;;;;;4992441;28;20109;-83
2022/03/18 04:01:38;;;;;;;8.52;7.63;;;13.00;96.70;;;;;;4971359;28;20050;-84
2022/03/18 04:04:08;;;;;;;9.00;7.97;;;13.00;96.70;;;;;;4986917;28;20050;-84
2022/03/18 04:06:37;;;;;;;11.10;8.00;;;13.00;96.70;;;;;;4971526;28;20050;-84
2022/03/18 04:09:06;;;;;;;8.52;7.70;;;13.00;96.70;;;;;;4971377;28;20114;-84
2022/03/18 04:11:33;;;;;;;9.20;8.02;;;13.00;96.70;;;;;;4973211;28;20038;-83
2022/03/18 04:14:01;;;;;;;9.02;8.13;;;13.00;96.70;;;;;;4988451;28;20058;-83
2022/03/18 04:16:30;;;;;;;8.95;7.45;;;13.00;96.70;;;;;;5003670;28;20561;-84
2022/03/18 04:18:58;;;;;;;10.40;8.15;;;13.00;96.70;;;;;;5002642;28;20058;-84
2022/03/18 04:21:27;;;;;;;10.13;7.25;;;13.00;96.70;;;;;;4987914;28;20050;-84
2022/03/18 04:23:55;;;;;;;10.80;7.80;;;13.00;96.70;;;;;;4982007;28;20049;-84
2022/03/18 04:26:23;;;;;;;11.25;8.45;;;12.90;96.70;;;;;;4972436;28;20048;-84
2022/03/18 04:28:51;;;;;;;8.88;7.50;;;12.90;96.70;;;;;;4975555;28;20081;-84
2022/03/18 04:31:19;;;;;;;11.18;7.97;;;13.00;96.70;;;;;;4989567;28;20501;-84
2022/03/18 04:33:47;;;;;;;11.30;7.95;;;12.90;96.70;;;;;;5007009;28;20046;-83
2022/03/18 04:36:15;;;;;;;12.68;7.82;;;12.90;96.70;;;;;;5002532;28;20062;-83
2022/03/18 04:38:45;;;;;;;8.68;7.45;;;12.90;96.70;;;;;;4970873;28;20046;-83
2022/03/18 04:41:13;;;;;;;9.32;8.30;;;12.90;96.70;;;;;;5001317;28;20050;-83
2022/03/18 04:43:41;;;;;;;9.45;7.95;;;13.00;96.70;;;;;;4978782;28;20039;-84
2022/03/18 04:46:09;;;;;;;9.80;7.82;;;13.00;96.70;;;;;;5015677;28;20058;-84
2022/03/18 04:48:37;;;;;;;10.05;8.15;;;12.90;96.70;;;;;;4975480;28;20042;-83
2022/03/18 04:51:05;;;;;;;11.32;8.18;;;12.90;96.70;;;;;;4985479;28;20078;-84
2022/03/18 04:53:35;;;;;;;9.70;7.65;;;12.90;96.70;;;;;;5003873;28;20134;-83
2022/03/18 04:57:15;;;;;;;10.45;8.43;;;13.00;96.70;;;;;;5019905;28;20051;-83
2022/03/18 04:58:53;;;;;;;11.93;8.30;;;12.90;96.70;;;;;;5002548;28;20074;-83
2022/03/18 05:01:21;;;;;;;10.40;8.15;;;12.90;96.70;;;;;;4970662;28;20337;-84
2022/03/18 05:03:49;;;;;;;9.55;8.55;;;13.00;96.70;;;;;;4974053;28;20533;-84
2022/03/18 05:06:18;;;;;;;11.48;8.10;;;13.00;96.70;;;;;;5003313;28;20055;-84
2022/03/18 05:08:46;;;;;;;11.82;8.35;;;12.90;96.70;;;;;;4986904;28;20815;-84
2022/03/18 05:11:16;;;;;;;9.82;8.05;;;12.90;96.70;;;;;;4971848;28;20049;-83
2022/03/18 05:13:44;;;;;;;10.48;8.73;;;12.90;96.70;;;;;;5016419;28;20147;-84
2022/03/18 05:16:12;;;;;;;13.18;8.32;;;12.90;96.70;;;;;;4986739;28;20078;-84
2022/03/18 05:18:40;;;;;;;11.45;8.63;;;12.90;96.70;;;;;;4970538;28;20064;-84
2022/03/18 05:21:08;;;;;;;12.07;8.43;;;12.90;96.70;;;;;;4986185;28;20041;-84
2022/03/18 05:23:37;;;;;;;11.45;8.27;;;12.90;96.70;;;;;;4993687;28;20046;-84
2022/03/18 05:26:05;;;;;;;12.43;8.57;;;12.90;96.70;;;;;;4986846;28;20441;-84
2022/03/18 05:28:35;;;;;;;14.25;8.57;;;12.90;96.70;;;;;;5003183;28;20485;-83
2022/03/18 05:31:02;;;;;;;10.05;8.18;;;12.90;96.70;;;;;;4983141;28;20419;-84
2022/03/18 05:33:31;;;;;;;14.13;8.45;;;12.90;96.70;;;;;;4987710;28;20497;-83
2022/03/18 05:35:59;;;;;;;10.02;8.25;;;12.90;96.70;;;;;;4978571;28;20047;-83
2022/03/18 05:38:27;;;;;;;10.00;8.45;;;12.90;96.70;;;;;;4950391;28;20142;-83
2022/03/18 05:40:55;;;;;;;11.75;8.50;;;12.90;96.70;;;;;;4951838;28;20082;-83
2022/03/18 05:43:23;;;;;;;9.77;7.88;;;12.90;96.70;;;;;;4983939;28;20046;-83
2022/03/18 05:45:53;;;;;;;10.32;8.10;;;12.90;96.70;;;;;;4956932;28;20070;-82
2022/03/18 05:48:21;;;;;;;10.52;8.43;;;12.90;96.70;;;;;;4949413;29;20057;-83
2022/03/18 05:50:49;;;;;;;9.10;7.72;;;12.90;96.70;;;;;;4950909;28;20524;-83
2022/03/18 05:53:18;;;;;;;9.52;8.52;;;12.90;96.70;;;;;;4952463;28;20155;-83
2022/03/18 05:58:32;;;;;;;9.35;8.32;;;12.90;96.70;;;;;;4967056;28;20063;-83
2022/03/18 06:01:01;;;;;;;10.77;7.97;;;12.90;96.70;;;;;;4982117;28;20142;-82
2022/03/18 06:03:30;;;;;;;10.38;7.47;;;12.90;96.70;;;;;;4983017;28;20047;-83
2022/03/18 06:05:58;;;;;;;9.68;7.32;;;12.90;96.70;;;;;;4967613;28;20052;-84
2022/03/18 06:13:59;;;;;;;10.15;7.43;;;13.00;96.70;;;;;;4950583;29;19973;-83
2022/03/18 06:16:29;;;;;;;10.02;7.97;;;13.00;96.70;;;;;;4980752;28;20134;-84
2022/03/18 06:18:57;;;;;;;10.07;8.15;;;13.00;96.70;;;;;;4978746;28;20054;-83
2022/03/18 06:21:26;;;;;;;11.75;8.07;;;13.00;96.70;;;;;;4949794;28;20043;-84
2022/03/18 06:23:54;;;;;;;10.10;8.35;;;12.90;96.70;;;;;;4949619;29;20050;-84
2022/03/18 06:26:22;;;;;;;12.98;8.93;;;13.00;96.70;;;;;;4978256;28;20075;-84
2022/03/18 06:28:50;;;;;;;11.85;7.68;;;13.00;96.70;;;;;;4941425;28;20047;-83
2022/03/18 06:31:19;;;;;;;9.48;8.05;;;13.00;96.70;;;;;;4966084;28;20375;-83
2022/03/18 06:33:50;;;;;;;11.40;9.07;;;13.00;96.70;;;;;;4965304;28;20557;-84
2022/03/18 06:36:18;;;;;;;10.88;8.23;;;13.00;96.70;;;;;;4976875;28;20512;-84
2022/03/18 06:38:48;;;;;;;9.90;8.38;;;13.00;96.70;;;;;;4970200;28;20051;-83
2022/03/18 06:41:16;;;;;;;10.48;8.30;;;13.10;96.70;;;;;;5001620;28;20046;-84
2022/03/18 06:43:45;;;;;;;10.88;8.30;;;13.10;96.70;;;;;;4988550;28;20046;-83
2022/03/18 06:46:16;;;;;;;9.82;8.23;;;13.10;96.70;;;;;;4988446;28;20133;-84
2022/03/18 06:48:44;;;;;;;12.38;8.65;;;13.10;96.70;;;;;;4976472;28;20505;-83
2022/03/18 06:51:15;;;;;;;10.93;8.27;;;13.20;96.70;;;;;;4968545;28;20047;-84
2022/03/18 06:53:44;;;;;;;11.98;8.25;;;13.20;96.70;;;;;;5004924;28;20047;-84
2022/03/18 06:56:12;;;;;;;9.95;8.13;;;13.20;96.70;;;;;;4977444;28;20054;-84
2022/03/18 06:58:42;;;;;;;11.55;7.93;;;13.20;96.70;;;;;;4987296;28;20054;-84
2022/03/18 07:01:10;;;;;;;11.07;8.52;;;13.20;96.70;;;;;;5001553;28;20046;-84
2022/03/18 07:03:39;;;;;;;9.57;8.10;;;13.30;96.70;;;;;;4968842;28;20047;-84
2022/03/18 07:06:07;;;;;;;9.40;8.15;;;13.30;96.70;;;;;;4984054;28;20046;-83
2022/03/18 07:08:37;;;;;;;10.95;7.97;;;13.30;96.70;;;;;;4984209;28;20342;-83
2022/03/18 07:11:05;;;;;;;11.75;8.75;;;13.30;96.70;;;;;;4995776;28;20050;-83
2022/03/18 07:13:34;;;;;;;10.05;8.15;;;13.40;96.70;;;;;;4974875;28;20046;-84
2022/03/18 07:19:10;;;;;;;9.45;8.15;;;13.40;96.70;;;;;;4947968;28;20552;-85
2022/03/18 07:21:38;;;;;;;10.30;8.48;;;13.40;96.70;;;;;;4965018;28;20054;-84
2022/03/18 07:24:08;;;;;;;11.30;8.30;;;13.50;96.70;;;;;;4968170;28;20113;-84
2022/03/18 07:26:36;;;;;;;11.65;8.88;;;13.50;96.70;;;;;;4969297;28;20054;-84
2022/03/18 07:29:05;;;;;;;10.93;8.38;;;13.50;96.70;;;;;;4970940;28;20062;-83
2022/03/18 07:31:33;;;;;;;10.95;8.40;;;13.50;96.70;;;;;;5008137;28;20046;-84
2022/03/18 07:34:02;;;;;;;9.32;8.27;;;13.60;96.70;;;;;;4980793;28;20053;-82
2022/03/18 07:36:30;;;;;;;10.20;8.13;;;13.60;96.70;;;;;;4983324;28;20113;-84
2022/03/18 07:38:59;;;;;;;9.23;7.90;;;13.60;96.70;;;;;;4971490;28;20505;-84
2022/03/18 07:41:28;;;;;;;10.90;8.40;;;13.60;96.70;;;;;;4966162;28;20047;-84
2022/03/18 07:43:57;;;;;;;10.10;8.35;;;13.70;96.70;;;;;;4999344;28;20049;-83
2022/03/18 07:46:25;;;;;;;11.00;8.23;;;13.70;96.70;;;;;;4998170;28;20059;-86
2022/03/18 07:48:54;;;;;;;10.75;8.30;;;13.80;96.70;;;;;;4983707;28;20039;-83
2022/03/18 07:51:22;;;;;;;10.73;8.80;;;13.80;96.70;;;;;;4975607;28;20053;-82
2022/03/18 07:53:50;;;;;;;9.93;7.63;;;13.90;96.70;;;;;;5000587;28;20038;-83
2022/03/18 07:56:19;;;;;;;9.90;7.90;;;13.90;96.70;;;;;;4969049;28;20066;-84
2022/03/18 07:58:49;;;;;;;11.50;7.57;;;13.90;96.70;;;;;;5003440;28;20051;-84
2022/03/18 08:01:17;;;;;;;13.18;8.25;;;14.00;96.70;;;;;;4971571;28;20078;-83
2022/03/18 08:03:46;;;;;;;9.20;8.20;;;14.10;96.70;;;;;;4972663;28;20089;-84
2022/03/18 08:06:14;;;;;;;9.48;7.88;;;14.10;96.70;;;;;;5001590;28;20046;-86
2022/03/18 08:08:42;;;;;;;9.13;8.20;;;14.10;96.70;;;;;;4995970;28;20062;-83
2022/03/18 08:11:11;;;;;;;10.18;7.90;;;14.10;96.70;;;;;;5004255;28;20046;-82
2022/03/18 08:13:49;;;;;;;11.25;8.60;;;14.10;96.70;;;;;;4986484;28;20138;-83
2022/03/18 08:16:19;;;;;;;11.75;8.38;;;14.20;96.70;;;;;;4989453;28;20049;-82
2022/03/18 08:18:47;;;;;;;12.80;8.30;;;14.20;96.70;;;;;;4984848;28;20039;-84
2022/03/18 08:21:16;;;;;;;10.80;8.13;;;14.20;96.70;;;;;;4970508;28;20051;-84
2022/03/18 08:23:45;;;;;;;9.98;8.30;;;14.30;96.70;;;;;;4971713;28;20109;-84
2022/03/18 08:26:13;;;;;;;14.93;8.55;;;14.30;96.70;;;;;;4970626;28;20101;-84
2022/03/18 08:28:43;;;;;;;11.02;8.07;;;14.30;96.70;;;;;;4994686;28;20050;-85
2022/03/18 08:31:11;;;;;;;9.73;7.93;;;14.30;96.70;;;;;;5001231;28;20050;-84
2022/03/18 08:33:41;;;;;;;11.40;7.95;;;14.40;96.70;;;;;;4987353;28;20035;-85
2022/03/18 08:36:09;;;;;;;11.73;8.52;;;14.40;96.70;;;;;;5001786;28;20423;-84
2022/03/18 08:38:39;;;;;;;10.10;8.18;;;14.50;96.70;;;;;;5003349;28;20058;-83
2022/03/18 08:41:07;;;;;;;10.98;8.32;;;14.50;96.70;;;;;;5002070;28;20047;-85
2022/03/18 08:43:36;;;;;;;9.18;7.72;;;14.50;96.70;;;;;;5005190;28;20536;-85
2022/03/18 08:46:04;;;;;;;12.85;7.97;;;14.60;96.70;;;;;;5003569;28;20806;-83
2022/03/18 08:48:33;;;;;;;12.20;8.40;;;14.60;96.70;;;;;;4978849;28;20053;-85
2022/03/18 08:51:02;;;;;;;11.20;8.52;;;14.60;96.70;;;;;;5009847;28;20057;-85
2022/03/18 08:53:31;;;;;;;9.02;8.00;;;14.60;96.70;;;;;;4987600;28;20063;-85
2022/03/18 08:56:00;;;;;;;10.25;7.70;;;14.60;96.70;;;;;;4987655;28;20057;-84
2022/03/18 08:58:28;;;;;;;8.88;7.80;;;14.60;96.70;;;;;;4976899;28;20374;-85
2022/03/18 09:00:56;;;;;;;9.05;7.60;;;14.70;96.70;;;;;;5003591;28;20046;-85
2022/03/18 09:03:25;;;;;;;10.30;7.60;;;14.70;96.70;;;;;;4965125;28;20039;-85
2022/03/18 09:05:55;;;;;;;8.70;6.93;;;14.70;96.70;;;;;;5002948;28;20053;-85
2022/03/18 09:08:25;;;;;;;10.25;7.38;;;14.70;96.70;;;;;;5002442;28;20054;-86
2022/03/18 09:10:53;;;;;;;9.90;7.38;;;14.80;96.70;;;;;;4974238;28;20085;-85
2022/03/18 09:13:21;;;;;;;9.18;6.35;;;14.80;96.70;;;;;;4968575;28;20046;-85
2022/03/18 09:15:50;;;;;;;9.90;7.15;;;14.80;96.70;;;;;;4970039;28;20038;-86
2022/03/18 09:18:21;;;;;;;10.57;7.65;;;14.80;96.70;;;;;;5004854;28;20057;-84
2022/03/18 09:20:50;;;;;;;13.18;8.45;;;14.90;96.70;;;;;;4973139;28;20039;-83
2022/03/18 09:23:18;;;;;;;11.27;6.82;;;14.90;96.70;;;;;;4971194;28;20039;-83
2022/03/18 09:25:48;;;;;;;8.70;6.90;;;14.90;96.70;;;;;;4986570;28;20047;-84
2022/03/18 09:28:16;;;;;;;9.73;6.45;;;14.90;96.70;;;;;;4985971;28;20199;-83
2022/03/18 09:30:51;;;;;;;10.25;6.88;;;14.90;96.70;;;;;;4969795;28;20051;-82
2022/03/18 09:33:19;;;;;;;8.20;6.78;;;14.90;96.70;;;;;;4971603;28;20038;-84
2022/03/18 09:35:48;;;;;;;7.97;6.65;;;14.90;96.70;;;;;;5001767;28;20054;-78
2022/03/18 09:38:17;;;;;;;8.20;6.22;;;14.90;96.70;;;;;;4986680;28;20055;-80
2022/03/18 09:40:45;;;;;;;8.20;5.97;;;15.00;96.50;;;;;;4984966;28;20047;-83
2022/03/18 09:43:36;;;;;;;7.88;6.68;;;15.00;96.70;;;;;;4980396;28;20043;-83
2022/03/18 09:46:06;;;;;;;7.18;6.10;;;15.10;96.60;;;;;;4971524;28;20045;-85
2022/03/18 09:48:55;;;;;;;9.20;5.60;;;15.10;96.20;;;;;;4996586;28;20093;-85
2022/03/18 09:51:24;;;;;;;8.63;6.28;;;15.10;95.50;;;;;;4978404;28;20054;-84
2022/03/18 09:54:26;;;;;;;7.60;5.47;;;15.20;95.90;;;;;;4993783;28;20489;-84
2022/03/18 09:56:55;;;;;;;7.85;5.30;;;15.30;96.00;;;;;;4970701;28;20050;-86
2022/03/18 09:59:27;;;;;;;7.93;5.72;;;15.40;95.90;;;;;;4964421;28;20313;-85
2022/03/18 10:02:22;;;;;;;8.95;5.88;;;15.40;95.40;;;;;;4987036;28;20053;-85
2022/03/18 10:04:55;;;;;;;6.07;5.20;;;15.50;95.20;;;;;;4986270;28;20039;-85
2022/03/18 10:07:24;;;;;;;10.35;5.53;;;15.50;95.20;;;;;;5007815;28;20314;-84
2022/03/18 10:10:08;;;;;;;8.93;5.97;;;15.60;94.80;;;;;;4973333;28;20048;-84
2022/03/18 10:12:37;;;;;;;9.75;5.85;;;15.60;94.60;;;;;;4972091;28;20413;-85
2022/03/18 10:15:13;;;;;;;7.65;5.82;;;15.70;94.40;;;;;;4992563;28;20068;-84
2022/03/18 10:17:46;;;;;;;8.27;5.70;;;15.70;94.20;;;;;;5002436;28;20140;-85
2022/03/18 10:20:27;;;;;;;8.35;5.18;;;15.80;94.70;;;;;;4986086;28;20046;-85
2022/03/18 10:22:56;;;;;;;7.30;5.18;;;15.90;93.80;;;;;;5000097;28;20057;-85
2022/03/18 10:25:40;;;;;;;9.68;5.32;;;15.90;93.40;;;;;;4972728;28;20053;-85
2022/03/18 10:28:10;;;;;;;6.00;4.88;;;15.90;93.20;;;;;;5002016;28;20058;-85
2022/03/18 10:30:40;;;;;;;8.40;5.35;;;15.90;93.10;;;;;;5001823;28;20169;-83
2022/03/18 10:33:14;;;;;;;8.50;4.93;;;16.10;92.90;;;;;;4970798;28;20043;-85
2022/03/18 10:38:32;;;;;;;6.03;5.38;;;16.10;92.20;;;;;;4989635;28;20042;-78
2022/03/18 10:41:05;;;;;;;7.28;5.15;;;16.10;92.30;;;;;;4972875;28;20338;-79
2022/03/18 10:43:51;;;;;;;7.60;5.20;;;16.20;92.50;;;;;;5017408;28;20049;-79
2022/03/18 10:46:20;;;;;;;8.00;5.03;;;16.20;92.30;;;;;;4968353;28;20049;-78
2022/03/18 10:49:03;;;;;;;5.93;4.88;;;16.30;92.30;;;;;;5019843;28;20054;-78
2022/03/18 10:51:33;;;;;;;9.88;5.47;;;16.30;92.30;;;;;;4968675;28;20496;-79
2022/03/18 10:54:02;;;;;;;8.68;5.03;;;16.30;92.20;;;;;;5002116;28;20515;-79
2022/03/18 10:56:54;;;;;;;10.45;5.65;;;16.30;92.10;;;;;;4985104;28;20122;-78
2022/03/18 10:59:24;;;;;;;9.13;5.80;;;16.30;92.50;;;;;;5004576;28;20042;-79
2022/03/18 11:02:04;;;;;;;6.22;4.90;;;16.30;92.20;;;;;;4996792;28;20049;-78
2022/03/18 11:04:33;;;;;;;8.15;5.13;;;16.30;92.30;;;;;;4987902;28;20155;-78
2022/03/18 11:12:38;;;;;;;9.95;4.93;;;16.50;92.50;;;;;;5003027;28;20642;-79
2022/03/18 11:15:10;;;;;;;7.03;5.40;;;16.50;92.30;;;;;;5000376;28;20080;-80
2022/03/18 11:17:42;;;;;;;7.50;5.50;;;16.60;93.30;;;;;;4999501;28;20073;-79
2022/03/18 11:20:11;;;;;;;7.53;5.65;;;16.60;92.10;;;;;;4983691;28;20046;-78
2022/03/18 11:22:40;;;;;;;8.40;5.55;;;16.50;91.80;;;;;;4968250;28;20073;-80
2022/03/18 11:25:11;;;;;;;9.32;5.50;;;16.60;92.40;;;;;;5002193;28;20508;-78
2022/03/18 11:27:41;;;;;;;6.03;5.32;;;16.50;92.20;;;;;;4969713;28;20038;-79
2022/03/18 11:30:22;;;;;;;7.85;5.57;;;16.60;92.20;;;;;;4984208;28;20131;-79
2022/03/18 11:33:23;;;;;;;9.02;5.93;;;16.60;92.60;;;;;;4965924;28;20046;-79
2022/03/18 11:36:21;;;;;;;7.38;5.90;;;16.60;92.50;;;;;;4983751;28;20050;-79
2022/03/18 11:39:06;;;;;;;6.78;5.90;;;16.60;92.50;;;;;;4995981;28;20058;-84
2022/03/18 11:41:52;;;;;;;9.95;5.93;;;16.60;92.20;;;;;;5020566;28;20056;-85
2022/03/18 11:44:55;;;;;;;7.30;6.07;;;16.60;92.60;;;;;;5004363;28;20046;-85
2022/03/18 11:47:38;;;;;;;9.25;5.20;;;16.60;92.50;;;;;;4987204;28;20046;-85
2022/03/18 11:50:48;;;;;;;8.15;6.35;;;16.60;92.80;;;;;;5000310;28;20043;-86
2022/03/18 11:53:47;;;;;;;9.23;5.40;;;16.60;93.10;;;;;;4988885;28;20096;-85
2022/03/18 11:56:19;;;;;;;8.10;5.97;;;16.60;92.90;;;;;;4970872;28;20039;-85
2022/03/18 11:58:48;;;;;;;7.80;6.10;;;16.60;93.30;;;;;;4989212;28;20057;-85
2022/03/18 12:01:43;;;;;;;9.43;5.90;;;16.60;93.00;;;;;;5010109;28;20038;-84
2022/03/18 12:04:42;;;;;;;9.25;5.80;;;16.60;93.20;;;;;;4965391;28;20070;-85
2022/03/18 12:07:16;;;;;;;9.43;6.00;;;16.60;93.40;;;;;;4985434;28;20038;-85
2022/03/18 12:10:00;;;;;;;6.32;5.65;;;16.50;93.30;;;;;;4980096;28;20381;-84
2022/03/18 12:12:31;;;;;;;10.70;6.00;;;16.50;93.90;;;;;;4986029;28;20046;-84
2022/03/18 12:15:03;;;;;;;6.57;5.55;;;16.50;93.70;;;;;;4987339;28;20046;-85
2022/03/18 12:17:38;;;;;;;7.70;6.00;;;16.50;93.70;;;;;;5003873;28;20057;-85
2022/03/18 12:20:09;;;;;;;7.30;6.13;;;16.50;93.90;;;;;;5004278;28;20046;-85
2022/03/18 12:22:41;;;;;;;9.10;6.55;;;16.40;94.00;;;;;;4971450;28;20634;-79
2022/03/18 12:25:10;;;;;;;7.93;5.93;;;16.40;93.90;;;;;;4998338;28;20050;-79
2022/03/18 12:27:40;;;;;;;10.43;6.57;;;16.40;94.30;;;;;;4984847;28;20065;-79
2022/03/18 12:30:10;;;;;;;7.50;6.10;;;16.40;94.30;;;;;;4969693;28;20535;-80
2022/03/18 12:32:39;;;;;;;8.88;6.45;;;16.40;94.90;;;;;;5003739;28;20054;-79
2022/03/18 12:35:08;;;;;;;8.10;6.18;;;16.40;94.80;;;;;;4998114;28;20179;-79
2022/03/18 12:37:36;;;;;;;9.10;6.40;;;16.40;95.20;;;;;;4980399;28;20137;-85
2022/03/18 12:40:08;;;;;;;9.73;6.90;;;16.40;95.00;;;;;;4986465;28;20039;-85
2022/03/18 12:42:50;;;;;;;8.93;6.03;;;16.40;95.10;;;;;;4989869;28;20042;-86
2022/03/18 12:45:25;;;;;;;8.52;7.18;;;16.40;95.10;;;;;;4984627;28;20042;-85
2022/03/18 12:47:54;;;;;;;7.63;6.22;;;16.40;95.10;;;;;;5003594;28;20073;-85
2022/03/18 12:50:25;;;;;;;8.90;6.25;;;16.50;95.10;;;;;;4958017;28;20483;-85
2022/03/18 12:52:54;;;;;;;7.85;6.25;;;16.50;95.20;;;;;;5005099;28;21070;-85
2022/03/18 12:55:24;;;;;;;10.13;6.38;;;16.60;95.80;;;;;;4980981;28;20444;-85
2022/03/18 12:57:59;;;;;;;9.10;7.05;;;16.60;95.40;;;;;;4999189;28;20050;-85
2022/03/18 13:00:28;;;;;;;10.38;6.60;;;16.60;95.60;;;;;;4978974;28;20408;-79
2022/03/18 13:03:16;;;;;;;7.38;6.45;;;16.60;94.70;;;;;;5006208;28;20082;-80
2022/03/18 13:05:48;;;;;;;11.23;7.00;;;16.60;94.70;;;;;;4980760;28;20049;-80
2022/03/18 13:08:17;;;;;;;11.23;7.30;;;16.50;94.70;;;;;;5002405;28;20074;-80
2022/03/18 13:10:56;;;;;;;8.80;6.55;;;16.60;95.00;;;;;;4988240;28;20078;-79
2022/03/18 13:13:28;;;;;;;12.18;7.60;;;16.60;95.10;;;;;;4984529;28;20046;-77
2022/03/18 13:16:01;;;;;;;9.30;6.72;;;16.60;95.00;;;;;;5002024;28;20061;-79
2022/03/18 13:18:34;;;;;;;11.05;7.20;;;16.60;94.90;;;;;;4988454;28;20105;-79
2022/03/18 13:21:04;;;;;;;9.18;6.90;;;16.50;94.90;;;;;;5003910;28;20057;-79
2022/03/18 13:23:33;;;;;;;10.38;7.05;;;16.50;95.30;;;;;;4990876;28;20038;-80
2022/03/18 13:26:04;;;;;;;13.23;7.63;;;16.60;95.80;;;;;;4987165;28;20124;-79
2022/03/18 13:28:32;;;;;;;8.48;7.38;;;16.70;95.60;;;;;;5008682;28;20050;-79
2022/03/18 13:33:53;;;;;;;9.73;7.40;;;16.70;95.20;;;;;;5003048;28;20819;-80